sensor_id;sensor_type;location;lat;lon;timestamp;P1;durP1;ratioP1;P2;durP2;ratioP2
78555;SDS011;67851;51.354;7.744;2023-10-19T00:00:34;10.85;;;6.78;;
78555;SDS011;67851;51.354;7.744;2023-10-19T00:03:05;10.65;;;7.55;;
78555;SDS011;67851;51.354;7.744;2023-10-19T00:05:33;9.20;;;6.53;;
78555;SDS011;67851;51.354;7.744;2023-10-19T00:08:00;6.55;;;4.30;;
78555;SDS011;67851;51.354;7.744;2023-10-19T00:10:31;9.25;;;6.30;;
78555;SDS011;67851;51.354;7.744;2023-10-19T00:13:01;6.57;;;5.47;;
78555;SDS011;67851;51.354;7.744;2023-10-19T00:15:31;7.35;;;5.63;;
78555;SDS011;67851;51.354;7.744;2023-10-19T00:17:59;6.13;;;4.50;;
78555;SDS011;67851;51.354;7.744;2023-10-19T00:20:44;6.97;;;4.72;;
78555;SDS011;67851;51.354;7.744;2023-10-19T00:23:12;6.63;;;5.25;;
78555;SDS011;67851;51.354;7.744;2023-10-19T00:25:40;7.78;;;4.82;;
78555;SDS011;67851;51.354;7.744;2023-10-19T00:28:10;8.48;;;4.85;;
78555;SDS011;67851;51.354;7.744;2023-10-19T00:30:43;8.25;;;5.78;;
78555;SDS011;67851;51.354;7.744;2023-10-19T00:33:12;11.63;;;6.00;;
78555;SDS011;67851;51.354;7.744;2023-10-19T00:35:47;9.70;;;6.10;;
78555;SDS011;67851;51.354;7.744;2023-10-19T00:38:24;10.00;;;7.32;;
78555;SDS011;67851;51.354;7.744;2023-10-19T00:40:56;9.82;;;6.90;;
78555;SDS011;67851;51.354;7.744;2023-10-19T00:43:40;8.93;;;6.88;;
78555;SDS011;67851;51.354;7.744;2023-10-19T00:46:11;8.35;;;6.32;;
78555;SDS011;67851;51.354;7.744;2023-10-19T00:48:51;9.57;;;6.68;;
78555;SDS011;67851;51.354;7.744;2023-10-19T00:51:28;10.00;;;5.60;;
78555;SDS011;67851;51.354;7.744;2023-10-19T00:54:23;6.63;;;4.30;;
78555;SDS011;67851;51.354;7.744;2023-10-19T00:56:58;7.38;;;4.95;;
78555;SDS011;67851;51.354;7.744;2023-10-19T00:59:30;7.07;;;4.80;;
78555;SDS011;67851;51.354;7.744;2023-10-19T01:01:57;6.82;;;5.18;;
78555;SDS011;67851;51.354;7.744;2023-10-19T01:05:01;5.75;;;4.65;;
78555;SDS011;67851;51.354;7.744;2023-10-19T01:07:32;7.15;;;4.88;;
78555;SDS011;67851;51.354;7.744;2023-10-19T01:10:07;7.43;;;5.85;;
78555;SDS011;67851;51.354;7.744;2023-10-19T01:12:35;5.97;;;4.63;;
78555;SDS011;67851;51.354;7.744;2023-10-19T01:15:10;10.07;;;6.25;;
78555;SDS011;67851;51.354;7.744;2023-10-19T01:17:51;7.35;;;5.18;;
78555;SDS011;67851;51.354;7.744;2023-10-19T01:20:20;8.18;;;5.25;;
78555;SDS011;67851;51.354;7.744;2023-10-19T01:23:09;10.88;;;7.82;;
78555;SDS011;67851;51.354;7.744;2023-10-19T01:28:17;11.73;;;8.70;;
78555;SDS011;67851;51.354;7.744;2023-10-19T01:30:45;13.85;;;8.73;;
78555;SDS011;67851;51.354;7.744;2023-10-19T01:33:14;12.63;;;7.38;;
78555;SDS011;67851;51.354;7.744;2023-10-19T01:35:42;16.63;;;10.18;;
78555;SDS011;67851;51.354;7.744;2023-10-19T01:38:28;14.63;;;10.50;;
78555;SDS011;67851;51.354;7.744;2023-10-19T01:41:02;18.83;;;11.43;;
78555;SDS011;67851;51.354;7.744;2023-10-19T01:43:41;16.92;;;10.65;;
78555;SDS011;67851;51.354;7.744;2023-10-19T01:46:09;12.32;;;7.50;;
78555;SDS011;67851;51.354;7.744;2023-10-19T01:48:43;13.95;;;9.57;;
78555;SDS011;67851;51.354;7.744;2023-10-19T01:51:11;15.10;;;9.57;;
78555;SDS011;67851;51.354;7.744;2023-10-19T01:53:40;15.68;;;9.13;;
78555;SDS011;67851;51.354;7.744;2023-10-19T01:56:12;22.55;;;12.95;;
78555;SDS011;67851;51.354;7.744;2023-10-19T01:58:41;17.75;;;11.77;;
78555;SDS011;67851;51.354;7.744;2023-10-19T02:01:13;19.45;;;12.70;;
78555;SDS011;67851;51.354;7.744;2023-10-19T02:03:41;24.27;;;12.82;;
78555;SDS011;67851;51.354;7.744;2023-10-19T02:06:09;24.50;;;14.63;;
78555;SDS011;67851;51.354;7.744;2023-10-19T02:08:44;24.00;;;14.55;;
78555;SDS011;67851;51.354;7.744;2023-10-19T02:11:11;25.75;;;15.07;;
78555;SDS011;67851;51.354;7.744;2023-10-19T02:13:45;24.45;;;16.17;;
78555;SDS011;67851;51.354;7.744;2023-10-19T02:16:13;23.75;;;13.70;;
78555;SDS011;67851;51.354;7.744;2023-10-19T02:18:43;18.30;;;12.73;;
78555;SDS011;67851;51.354;7.744;2023-10-19T02:21:10;22.15;;;14.30;;
78555;SDS011;67851;51.354;7.744;2023-10-19T02:23:40;25.05;;;14.10;;
78555;SDS011;67851;51.354;7.744;2023-10-19T02:26:11;22.37;;;14.07;;
78555;SDS011;67851;51.354;7.744;2023-10-19T02:28:39;23.95;;;14.07;;
78555;SDS011;67851;51.354;7.744;2023-10-19T02:31:10;28.55;;;15.07;;
78555;SDS011;67851;51.354;7.744;2023-10-19T02:33:44;26.10;;;16.07;;
78555;SDS011;67851;51.354;7.744;2023-10-19T02:36:13;23.65;;;14.65;;
78555;SDS011;67851;51.354;7.744;2023-10-19T02:38:42;21.45;;;14.10;;
78555;SDS011;67851;51.354;7.744;2023-10-19T02:41:16;28.95;;;14.23;;
78555;SDS011;67851;51.354;7.744;2023-10-19T02:43:43;26.42;;;15.60;;
78555;SDS011;67851;51.354;7.744;2023-10-19T02:46:18;21.30;;;13.75;;
78555;SDS011;67851;51.354;7.744;2023-10-19T02:48:47;24.25;;;13.75;;
78555;SDS011;67851;51.354;7.744;2023-10-19T02:51:16;20.50;;;13.57;;
78555;SDS011;67851;51.354;7.744;2023-10-19T02:53:45;22.88;;;13.48;;
78555;SDS011;67851;51.354;7.744;2023-10-19T02:56:13;19.27;;;12.68;;
78555;SDS011;67851;51.354;7.744;2023-10-19T02:58:43;20.38;;;12.00;;
78555;SDS011;67851;51.354;7.744;2023-10-19T03:01:16;25.30;;;14.30;;
78555;SDS011;67851;51.354;7.744;2023-10-19T03:03:50;20.25;;;12.57;;
78555;SDS011;67851;51.354;7.744;2023-10-19T03:06:21;22.23;;;13.48;;
78555;SDS011;67851;51.354;7.744;2023-10-19T03:08:48;19.52;;;12.45;;
78555;SDS011;67851;51.354;7.744;2023-10-19T03:11:24;22.15;;;12.38;;
78555;SDS011;67851;51.354;7.744;2023-10-19T03:13:51;14.55;;;8.70;;
78555;SDS011;67851;51.354;7.744;2023-10-19T03:16:18;19.33;;;13.10;;
78555;SDS011;67851;51.354;7.744;2023-10-19T03:18:46;19.42;;;12.10;;
78555;SDS011;67851;51.354;7.744;2023-10-19T03:21:13;18.23;;;12.40;;
78555;SDS011;67851;51.354;7.744;2023-10-19T03:23:40;20.45;;;11.90;;
78555;SDS011;67851;51.354;7.744;2023-10-19T03:26:07;23.77;;;12.27;;
78555;SDS011;67851;51.354;7.744;2023-10-19T03:28:52;20.45;;;11.63;;
78555;SDS011;67851;51.354;7.744;2023-10-19T03:31:22;19.15;;;11.35;;
78555;SDS011;67851;51.354;7.744;2023-10-19T03:33:53;19.50;;;11.65;;
78555;SDS011;67851;51.354;7.744;2023-10-19T03:36:21;18.15;;;10.68;;
78555;SDS011;67851;51.354;7.744;2023-10-19T03:38:50;16.98;;;10.18;;
78555;SDS011;67851;51.354;7.744;2023-10-19T03:41:19;16.42;;;10.25;;
78555;SDS011;67851;51.354;7.744;2023-10-19T03:43:54;15.50;;;8.73;;
78555;SDS011;67851;51.354;7.744;2023-10-19T03:46:23;18.13;;;9.57;;
78555;SDS011;67851;51.354;7.744;2023-10-19T03:49:02;15.13;;;9.90;;
78555;SDS011;67851;51.354;7.744;2023-10-19T03:51:48;13.68;;;9.65;;
78555;SDS011;67851;51.354;7.744;2023-10-19T03:54:33;17.60;;;9.10;;
78555;SDS011;67851;51.354;7.744;2023-10-19T03:57:08;12.68;;;8.07;;
78555;SDS011;67851;51.354;7.744;2023-10-19T03:59:39;12.88;;;9.10;;
78555;SDS011;67851;51.354;7.744;2023-10-19T04:02:07;13.82;;;8.52;;
78555;SDS011;67851;51.354;7.744;2023-10-19T04:04:40;14.73;;;9.07;;
78555;SDS011;67851;51.354;7.744;2023-10-19T04:07:10;13.82;;;8.65;;
78555;SDS011;67851;51.354;7.744;2023-10-19T04:12:24;15.68;;;7.15;;
78555;SDS011;67851;51.354;7.744;2023-10-19T04:14:51;14.68;;;8.23;;
78555;SDS011;67851;51.354;7.744;2023-10-19T04:17:17;13.38;;;7.18;;
78555;SDS011;67851;51.354;7.744;2023-10-19T04:19:47;12.32;;;7.65;;
78555;SDS011;67851;51.354;7.744;2023-10-19T04:22:18;11.07;;;6.93;;
78555;SDS011;67851;51.354;7.744;2023-10-19T04:24:51;12.30;;;7.20;;
78555;SDS011;67851;51.354;7.744;2023-10-19T04:27:18;11.80;;;7.53;;
78555;SDS011;67851;51.354;7.744;2023-10-19T04:29:49;13.63;;;6.88;;
78555;SDS011;67851;51.354;7.744;2023-10-19T04:32:16;13.93;;;6.85;;
78555;SDS011;67851;51.354;7.744;2023-10-19T04:34:52;12.13;;;6.55;;
78555;SDS011;67851;51.354;7.744;2023-10-19T04:37:21;13.43;;;6.90;;
78555;SDS011;67851;51.354;7.744;2023-10-19T04:39:52;14.25;;;8.05;;
78555;SDS011;67851;51.354;7.744;2023-10-19T04:42:18;12.57;;;6.47;;
78555;SDS011;67851;51.354;7.744;2023-10-19T04:44:48;15.93;;;7.25;;
78555;SDS011;67851;51.354;7.744;2023-10-19T04:47:15;11.10;;;6.97;;
78555;SDS011;67851;51.354;7.744;2023-10-19T04:49:42;13.38;;;6.60;;
78555;SDS011;67851;51.354;7.744;2023-10-19T04:52:09;10.05;;;5.40;;
78555;SDS011;67851;51.354;7.744;2023-10-19T04:54:37;12.25;;;6.75;;
78555;SDS011;67851;51.354;7.744;2023-10-19T04:57:04;15.18;;;7.30;;
78555;SDS011;67851;51.354;7.744;2023-10-19T04:59:31;14.82;;;7.35;;
78555;SDS011;67851;51.354;7.744;2023-10-19T05:01:59;11.02;;;6.88;;
78555;SDS011;67851;51.354;7.744;2023-10-19T05:04:29;9.93;;;5.55;;
78555;SDS011;67851;51.354;7.744;2023-10-19T05:06:55;10.43;;;6.28;;
78555;SDS011;67851;51.354;7.744;2023-10-19T05:09:22;9.48;;;6.40;;
78555;SDS011;67851;51.354;7.744;2023-10-19T05:11:49;11.32;;;5.88;;
78555;SDS011;67851;51.354;7.744;2023-10-19T05:14:20;9.65;;;5.80;;
78555;SDS011;67851;51.354;7.744;2023-10-19T05:16:47;14.15;;;7.22;;
78555;SDS011;67851;51.354;7.744;2023-10-19T05:19:15;11.02;;;6.00;;
78555;SDS011;67851;51.354;7.744;2023-10-19T05:21:43;10.88;;;6.90;;
78555;SDS011;67851;51.354;7.744;2023-10-19T05:24:10;11.38;;;6.65;;
78555;SDS011;67851;51.354;7.744;2023-10-19T05:26:37;12.52;;;7.00;;
78555;SDS011;67851;51.354;7.744;2023-10-19T05:29:04;12.10;;;7.43;;
78555;SDS011;67851;51.354;7.744;2023-10-19T05:31:32;17.58;;;7.18;;
78555;SDS011;67851;51.354;7.744;2023-10-19T05:34:00;11.55;;;6.68;;
78555;SDS011;67851;51.354;7.744;2023-10-19T05:36:28;13.75;;;6.35;;
78555;SDS011;67851;51.354;7.744;2023-10-19T05:38:55;14.75;;;6.10;;
78555;SDS011;67851;51.354;7.744;2023-10-19T05:41:22;10.02;;;6.32;;
78555;SDS011;67851;51.354;7.744;2023-10-19T05:43:49;13.27;;;6.80;;
78555;SDS011;67851;51.354;7.744;2023-10-19T05:46:16;12.38;;;7.03;;
78555;SDS011;67851;51.354;7.744;2023-10-19T05:48:45;11.27;;;6.68;;
78555;SDS011;67851;51.354;7.744;2023-10-19T05:51:11;12.75;;;6.85;;
78555;SDS011;67851;51.354;7.744;2023-10-19T05:53:41;13.35;;;6.43;;
78555;SDS011;67851;51.354;7.744;2023-10-19T05:56:12;13.45;;;6.50;;
78555;SDS011;67851;51.354;7.744;2023-10-19T05:58:40;12.98;;;7.20;;
78555;SDS011;67851;51.354;7.744;2023-10-19T06:01:07;14.80;;;7.13;;
78555;SDS011;67851;51.354;7.744;2023-10-19T06:03:34;13.85;;;6.65;;
78555;SDS011;67851;51.354;7.744;2023-10-19T06:06:01;10.98;;;6.55;;
78555;SDS011;67851;51.354;7.744;2023-10-19T06:08:30;18.50;;;7.43;;
78555;SDS011;67851;51.354;7.744;2023-10-19T06:10:57;12.70;;;7.97;;
78555;SDS011;67851;51.354;7.744;2023-10-19T06:13:26;17.33;;;7.93;;
78555;SDS011;67851;51.354;7.744;2023-10-19T06:15:53;12.60;;;7.15;;
78555;SDS011;67851;51.354;7.744;2023-10-19T06:18:20;14.60;;;7.30;;
78555;SDS011;67851;51.354;7.744;2023-10-19T06:20:47;13.05;;;7.05;;
78555;SDS011;67851;51.354;7.744;2023-10-19T06:23:17;12.43;;;7.00;;
78555;SDS011;67851;51.354;7.744;2023-10-19T06:25:44;26.80;;;7.75;;
78555;SDS011;67851;51.354;7.744;2023-10-19T06:28:11;13.50;;;7.38;;
78555;SDS011;67851;51.354;7.744;2023-10-19T06:30:39;13.02;;;6.65;;
78555;SDS011;67851;51.354;7.744;2023-10-19T06:33:06;14.48;;;6.93;;
78555;SDS011;67851;51.354;7.744;2023-10-19T06:35:34;12.40;;;6.60;;
78555;SDS011;67851;51.354;7.744;2023-10-19T06:38:03;11.15;;;7.25;;
78555;SDS011;67851;51.354;7.744;2023-10-19T06:40:31;11.48;;;6.65;;
78555;SDS011;67851;51.354;7.744;2023-10-19T06:43:00;12.95;;;6.57;;
78555;SDS011;67851;51.354;7.744;2023-10-19T06:45:29;15.57;;;6.43;;
78555;SDS011;67851;51.354;7.744;2023-10-19T06:47:56;13.52;;;6.75;;
78555;SDS011;67851;51.354;7.744;2023-10-19T06:50:26;11.40;;;6.13;;
78555;SDS011;67851;51.354;7.744;2023-10-19T06:52:53;15.60;;;6.13;;
78555;SDS011;67851;51.354;7.744;2023-10-19T06:55:24;8.80;;;5.60;;
78555;SDS011;67851;51.354;7.744;2023-10-19T06:57:52;14.65;;;5.95;;
78555;SDS011;67851;51.354;7.744;2023-10-19T07:00:20;16.25;;;5.85;;
78555;SDS011;67851;51.354;7.744;2023-10-19T07:02:57;9.13;;;5.55;;
78555;SDS011;67851;51.354;7.744;2023-10-19T07:05:26;9.65;;;5.47;;
78555;SDS011;67851;51.354;7.744;2023-10-19T07:07:57;11.45;;;5.38;;
78555;SDS011;67851;51.354;7.744;2023-10-19T07:10:26;14.35;;;5.47;;
78555;SDS011;67851;51.354;7.744;2023-10-19T07:12:56;9.38;;;4.45;;
78555;SDS011;67851;51.354;7.744;2023-10-19T07:15:24;10.38;;;4.53;;
78555;SDS011;67851;51.354;7.744;2023-10-19T07:17:52;12.02;;;4.47;;
78555;SDS011;67851;51.354;7.744;2023-10-19T07:20:20;10.05;;;4.57;;
78555;SDS011;67851;51.354;7.744;2023-10-19T07:23:02;7.75;;;4.13;;
78555;SDS011;67851;51.354;7.744;2023-10-19T07:28:14;11.35;;;3.55;;
78555;SDS011;67851;51.354;7.744;2023-10-19T07:30:42;7.18;;;3.55;;
78555;SDS011;67851;51.354;7.744;2023-10-19T07:33:10;11.38;;;4.15;;
78555;SDS011;67851;51.354;7.744;2023-10-19T07:35:44;9.63;;;3.88;;
78555;SDS011;67851;51.354;7.744;2023-10-19T07:38:13;6.53;;;3.80;;
78555;SDS011;67851;51.354;7.744;2023-10-19T07:40:43;7.32;;;3.90;;
78555;SDS011;67851;51.354;7.744;2023-10-19T07:43:10;12.95;;;5.43;;
78555;SDS011;67851;51.354;7.744;2023-10-19T07:45:37;8.15;;;4.18;;
78555;SDS011;67851;51.354;7.744;2023-10-19T07:48:04;8.75;;;4.55;;
78555;SDS011;67851;51.354;7.744;2023-10-19T07:50:38;8.23;;;4.05;;
78555;SDS011;67851;51.354;7.744;2023-10-19T07:53:07;7.20;;;3.33;;
78555;SDS011;67851;51.354;7.744;2023-10-19T07:55:35;9.88;;;4.55;;
78555;SDS011;67851;51.354;7.744;2023-10-19T07:58:05;9.15;;;4.07;;
78555;SDS011;67851;51.354;7.744;2023-10-19T08:00:33;7.60;;;4.20;;
78555;SDS011;67851;51.354;7.744;2023-10-19T08:03:02;22.98;;;5.40;;
78555;SDS011;67851;51.354;7.744;2023-10-19T08:05:30;9.35;;;4.20;;
78555;SDS011;67851;51.354;7.744;2023-10-19T08:07:57;8.38;;;4.40;;
78555;SDS011;67851;51.354;7.744;2023-10-19T08:10:27;11.75;;;4.70;;
78555;SDS011;67851;51.354;7.744;2023-10-19T08:12:56;6.93;;;4.55;;
78555;SDS011;67851;51.354;7.744;2023-10-19T08:15:23;8.98;;;4.32;;
78555;SDS011;67851;51.354;7.744;2023-10-19T08:17:52;10.38;;;4.57;;
78555;SDS011;67851;51.354;7.744;2023-10-19T08:20:22;8.85;;;4.15;;
78555;SDS011;67851;51.354;7.744;2023-10-19T08:22:50;9.70;;;4.60;;
78555;SDS011;67851;51.354;7.744;2023-10-19T08:25:18;9.00;;;4.55;;
78555;SDS011;67851;51.354;7.744;2023-10-19T08:27:48;7.45;;;4.15;;
78555;SDS011;67851;51.354;7.744;2023-10-19T08:30:21;12.38;;;4.20;;
78555;SDS011;67851;51.354;7.744;2023-10-19T08:32:52;9.43;;;4.53;;
78555;SDS011;67851;51.354;7.744;2023-10-19T08:35:21;10.05;;;4.30;;
78555;SDS011;67851;51.354;7.744;2023-10-19T08:37:54;6.35;;;3.70;;
78555;SDS011;67851;51.354;7.744;2023-10-19T08:40:24;9.48;;;4.15;;
78555;SDS011;67851;51.354;7.744;2023-10-19T08:42:53;9.27;;;4.38;;
78555;SDS011;67851;51.354;7.744;2023-10-19T08:45:21;5.95;;;3.88;;
78555;SDS011;67851;51.354;7.744;2023-10-19T08:50:28;7.93;;;3.55;;
78555;SDS011;67851;51.354;7.744;2023-10-19T08:52:56;5.95;;;3.00;;
78555;SDS011;67851;51.354;7.744;2023-10-19T08:55:24;7.03;;;3.33;;
78555;SDS011;67851;51.354;7.744;2023-10-19T08:58:12;6.65;;;3.38;;
78555;SDS011;67851;51.354;7.744;2023-10-19T09:00:50;6.40;;;3.22;;
78555;SDS011;67851;51.354;7.744;2023-10-19T09:03:21;5.68;;;2.90;;
78555;SDS011;67851;51.354;7.744;2023-10-19T09:05:51;6.78;;;2.83;;
78555;SDS011;67851;51.354;7.744;2023-10-19T09:08:19;6.63;;;2.70;;
78555;SDS011;67851;51.354;7.744;2023-10-19T09:10:49;7.15;;;2.80;;
78555;SDS011;67851;51.354;7.744;2023-10-19T09:13:18;10.23;;;2.72;;
78555;SDS011;67851;51.354;7.744;2023-10-19T09:15:46;10.13;;;3.08;;
78555;SDS011;67851;51.354;7.744;2023-10-19T09:20:44;9.30;;;2.88;;
78555;SDS011;67851;51.354;7.744;2023-10-19T09:23:31;10.30;;;3.13;;
78555;SDS011;67851;51.354;7.744;2023-10-19T09:25:58;7.78;;;3.22;;
78555;SDS011;67851;51.354;7.744;2023-10-19T09:28:35;8.55;;;2.38;;
78555;SDS011;67851;51.354;7.744;2023-10-19T09:31:05;6.50;;;2.55;;
78555;SDS011;67851;51.354;7.744;2023-10-19T09:33:36;6.25;;;2.67;;
78555;SDS011;67851;51.354;7.744;2023-10-19T09:36:06;16.35;;;2.70;;
78555;SDS011;67851;51.354;7.744;2023-10-19T09:38:50;14.35;;;3.03;;
78555;SDS011;67851;51.354;7.744;2023-10-19T09:41:18;10.82;;;2.40;;
78555;SDS011;67851;51.354;7.744;2023-10-19T09:43:57;8.00;;;2.50;;
78555;SDS011;67851;51.354;7.744;2023-10-19T09:46:32;10.05;;;2.92;;
78555;SDS011;67851;51.354;7.744;2023-10-19T09:49:07;6.75;;;2.15;;
78555;SDS011;67851;51.354;7.744;2023-10-19T09:51:38;7.32;;;2.10;;
78555;SDS011;67851;51.354;7.744;2023-10-19T09:54:20;10.52;;;2.03;;
78555;SDS011;67851;51.354;7.744;2023-10-19T09:57:03;9.25;;;2.25;;
78555;SDS011;67851;51.354;7.744;2023-10-19T09:59:40;6.25;;;1.75;;
78555;SDS011;67851;51.354;7.744;2023-10-19T10:02:12;4.95;;;1.73;;
78555;SDS011;67851;51.354;7.744;2023-10-19T10:04:41;9.07;;;2.10;;
78555;SDS011;67851;51.354;7.744;2023-10-19T10:07:13;12.00;;;2.00;;
78555;SDS011;67851;51.354;7.744;2023-10-19T10:09:57;9.40;;;1.85;;
78555;SDS011;67851;51.354;7.744;2023-10-19T10:12:24;9.20;;;1.80;;
78555;SDS011;67851;51.354;7.744;2023-10-19T10:14:56;9.35;;;2.20;;
78555;SDS011;67851;51.354;7.744;2023-10-19T10:17:28;7.68;;;1.95;;
78555;SDS011;67851;51.354;7.744;2023-10-19T10:19:56;8.15;;;2.30;;
78555;SDS011;67851;51.354;7.744;2023-10-19T10:22:45;8.10;;;2.25;;
78555;SDS011;67851;51.354;7.744;2023-10-19T10:25:47;6.43;;;1.55;;
78555;SDS011;67851;51.354;7.744;2023-10-19T10:28:16;9.85;;;1.83;;
78555;SDS011;67851;51.354;7.744;2023-10-19T10:31:29;6.03;;;2.10;;
78555;SDS011;67851;51.354;7.744;2023-10-19T10:33:48;8.93;;;2.03;;
78555;SDS011;67851;51.354;7.744;2023-10-19T10:36:21;5.88;;;1.98;;
78555;SDS011;67851;51.354;7.744;2023-10-19T10:38:50;8.88;;;2.35;;
78555;SDS011;67851;51.354;7.744;2023-10-19T10:41:21;10.93;;;2.47;;
78555;SDS011;67851;51.354;7.744;2023-10-19T10:43:49;7.57;;;2.90;;
78555;SDS011;67851;51.354;7.744;2023-10-19T10:46:20;6.47;;;2.40;;
78555;SDS011;67851;51.354;7.744;2023-10-19T10:48:48;8.85;;;2.70;;
78555;SDS011;67851;51.354;7.744;2023-10-19T10:51:16;8.15;;;2.80;;
78555;SDS011;67851;51.354;7.744;2023-10-19T10:53:49;7.53;;;2.90;;
78555;SDS011;67851;51.354;7.744;2023-10-19T10:56:16;8.48;;;3.25;;
78555;SDS011;67851;51.354;7.744;2023-10-19T10:58:44;8.80;;;2.75;;
78555;SDS011;67851;51.354;7.744;2023-10-19T11:01:12;10.25;;;2.60;;
78555;SDS011;67851;51.354;7.744;2023-10-19T11:03:40;12.32;;;2.40;;
78555;SDS011;67851;51.354;7.744;2023-10-19T11:06:08;9.32;;;2.47;;
78555;SDS011;67851;51.354;7.744;2023-10-19T11:08:36;5.97;;;2.00;;
78555;SDS011;67851;51.354;7.744;2023-10-19T11:11:08;11.57;;;2.60;;
78555;SDS011;67851;51.354;7.744;2023-10-19T11:13:40;5.93;;;2.20;;
78555;SDS011;67851;51.354;7.744;2023-10-19T11:16:07;5.85;;;1.88;;
78555;SDS011;67851;51.354;7.744;2023-10-19T11:18:40;9.75;;;2.10;;
78555;SDS011;67851;51.354;7.744;2023-10-19T11:21:12;6.82;;;2.10;;
78555;SDS011;67851;51.354;7.744;2023-10-19T11:23:45;9.10;;;2.20;;
78555;SDS011;67851;51.354;7.744;2023-10-19T11:26:16;5.40;;;2.05;;
78555;SDS011;67851;51.354;7.744;2023-10-19T11:28:43;9.48;;;2.85;;
78555;SDS011;67851;51.354;7.744;2023-10-19T11:31:21;7.72;;;2.10;;
78555;SDS011;67851;51.354;7.744;2023-10-19T11:33:50;8.27;;;2.35;;
78555;SDS011;67851;51.354;7.744;2023-10-19T11:36:18;7.63;;;1.95;;
78555;SDS011;67851;51.354;7.744;2023-10-19T11:38:47;9.02;;;2.20;;
78555;SDS011;67851;51.354;7.744;2023-10-19T11:41:15;9.88;;;2.03;;
78555;SDS011;67851;51.354;7.744;2023-10-19T11:43:44;6.22;;;1.98;;
78555;SDS011;67851;51.354;7.744;2023-10-19T11:46:12;5.80;;;1.30;;
78555;SDS011;67851;51.354;7.744;2023-10-19T11:48:39;6.63;;;1.75;;
78555;SDS011;67851;51.354;7.744;2023-10-19T11:51:06;4.68;;;1.58;;
78555;SDS011;67851;51.354;7.744;2023-10-19T11:53:34;9.57;;;1.70;;
78555;SDS011;67851;51.354;7.744;2023-10-19T11:56:04;10.10;;;2.20;;
78555;SDS011;67851;51.354;7.744;2023-10-19T11:58:33;8.60;;;2.33;;
78555;SDS011;67851;51.354;7.744;2023-10-19T12:01:01;9.32;;;1.67;;
78555;SDS011;67851;51.354;7.744;2023-10-19T12:03:31;7.15;;;1.38;;
78555;SDS011;67851;51.354;7.744;2023-10-19T12:05:58;7.45;;;1.48;;
78555;SDS011;67851;51.354;7.744;2023-10-19T12:08:25;10.75;;;1.92;;
78555;SDS011;67851;51.354;7.744;2023-10-19T12:10:51;9.93;;;1.90;;
78555;SDS011;67851;51.354;7.744;2023-10-19T12:13:18;9.65;;;2.05;;
78555;SDS011;67851;51.354;7.744;2023-10-19T12:15:45;9.65;;;1.65;;
78555;SDS011;67851;51.354;7.744;2023-10-19T12:21:45;7.72;;;1.55;;
78555;SDS011;67851;51.354;7.744;2023-10-19T12:24:16;6.13;;;1.63;;
78555;SDS011;67851;51.354;7.744;2023-10-19T12:26:44;11.85;;;2.33;;
78555;SDS011;67851;51.354;7.744;2023-10-19T12:29:11;6.45;;;1.73;;
78555;SDS011;67851;51.354;7.744;2023-10-19T12:31:39;11.85;;;1.50;;
78555;SDS011;67851;51.354;7.744;2023-10-19T12:34:06;6.10;;;1.83;;
78555;SDS011;67851;51.354;7.744;2023-10-19T12:36:35;9.70;;;2.55;;
78555;SDS011;67851;51.354;7.744;2023-10-19T12:39:02;11.52;;;1.80;;
78555;SDS011;67851;51.354;7.744;2023-10-19T12:41:36;8.85;;;1.98;;
78555;SDS011;67851;51.354;7.744;2023-10-19T12:44:03;7.25;;;1.60;;
78555;SDS011;67851;51.354;7.744;2023-10-19T12:46:38;9.88;;;1.25;;
78555;SDS011;67851;51.354;7.744;2023-10-19T12:49:06;9.43;;;1.42;;
78555;SDS011;67851;51.354;7.744;2023-10-19T12:51:39;5.18;;;1.60;;
78555;SDS011;67851;51.354;7.744;2023-10-19T12:54:13;5.45;;;1.38;;
78555;SDS011;67851;51.354;7.744;2023-10-19T12:56:41;6.57;;;1.27;;
78555;SDS011;67851;51.354;7.744;2023-10-19T12:59:09;6.32;;;1.98;;
78555;SDS011;67851;51.354;7.744;2023-10-19T13:01:36;9.55;;;1.70;;
78555;SDS011;67851;51.354;7.744;2023-10-19T13:04:03;7.88;;;1.95;;
78555;SDS011;67851;51.354;7.744;2023-10-19T13:06:43;9.32;;;1.92;;
78555;SDS011;67851;51.354;7.744;2023-10-19T13:09:10;10.35;;;1.83;;
78555;SDS011;67851;51.354;7.744;2023-10-19T13:11:36;6.10;;;1.50;;
78555;SDS011;67851;51.354;7.744;2023-10-19T13:14:05;9.77;;;2.10;;
78555;SDS011;67851;51.354;7.744;2023-10-19T13:16:32;9.13;;;1.83;;
78555;SDS011;67851;51.354;7.744;2023-10-19T13:18:59;10.57;;;1.92;;
78555;SDS011;67851;51.354;7.744;2023-10-19T13:21:35;7.18;;;1.42;;
78555;SDS011;67851;51.354;7.744;2023-10-19T13:24:04;7.88;;;1.65;;
78555;SDS011;67851;51.354;7.744;2023-10-19T13:26:32;10.55;;;2.17;;
78555;SDS011;67851;51.354;7.744;2023-10-19T13:29:00;6.50;;;1.63;;
78555;SDS011;67851;51.354;7.744;2023-10-19T13:31:28;8.82;;;2.08;;
78555;SDS011;67851;51.354;7.744;2023-10-19T13:33:57;11.93;;;2.13;;
78555;SDS011;67851;51.354;7.744;2023-10-19T13:36:26;12.98;;;2.00;;
78555;SDS011;67851;51.354;7.744;2023-10-19T13:38:54;10.85;;;2.60;;
78555;SDS011;67851;51.354;7.744;2023-10-19T13:41:21;8.18;;;1.60;;
78555;SDS011;67851;51.354;7.744;2023-10-19T13:43:48;8.68;;;1.63;;
78555;SDS011;67851;51.354;7.744;2023-10-19T13:46:16;11.60;;;2.35;;
78555;SDS011;67851;51.354;7.744;2023-10-19T13:48:43;10.60;;;1.77;;
78555;SDS011;67851;51.354;7.744;2023-10-19T13:51:10;11.38;;;1.90;;
78555;SDS011;67851;51.354;7.744;2023-10-19T13:53:40;6.32;;;2.00;;
78555;SDS011;67851;51.354;7.744;2023-10-19T13:56:08;13.13;;;2.30;;
78555;SDS011;67851;51.354;7.744;2023-10-19T13:58:36;7.93;;;2.30;;
78555;SDS011;67851;51.354;7.744;2023-10-19T14:01:02;12.40;;;2.30;;
78555;SDS011;67851;51.354;7.744;2023-10-19T14:03:32;12.30;;;2.83;;
78555;SDS011;67851;51.354;7.744;2023-10-19T14:06:01;13.23;;;2.47;;
78555;SDS011;67851;51.354;7.744;2023-10-19T14:08:29;11.57;;;4.15;;
78555;SDS011;67851;51.354;7.744;2023-10-19T14:11:00;13.13;;;6.72;;
78555;SDS011;67851;51.354;7.744;2023-10-19T14:13:29;17.63;;;8.60;;
78555;SDS011;67851;51.354;7.744;2023-10-19T14:15:55;14.65;;;3.70;;
78555;SDS011;67851;51.354;7.744;2023-10-19T14:18:22;9.15;;;3.38;;
78555;SDS011;67851;51.354;7.744;2023-10-19T14:20:49;12.43;;;3.90;;
78555;SDS011;67851;51.354;7.744;2023-10-19T14:23:16;9.38;;;2.28;;
78555;SDS011;67851;51.354;7.744;2023-10-19T14:25:43;9.35;;;3.00;;
78555;SDS011;67851;51.354;7.744;2023-10-19T14:28:11;8.73;;;2.20;;
78555;SDS011;67851;51.354;7.744;2023-10-19T14:30:38;12.13;;;2.60;;
78555;SDS011;67851;51.354;7.744;2023-10-19T14:33:33;10.55;;;2.97;;
78555;SDS011;67851;51.354;7.744;2023-10-19T14:36:02;13.07;;;3.38;;
78555;SDS011;67851;51.354;7.744;2023-10-19T14:38:30;10.80;;;2.78;;
78555;SDS011;67851;51.354;7.744;2023-10-19T14:40:58;10.85;;;2.50;;
78555;SDS011;67851;51.354;7.744;2023-10-19T14:43:25;8.25;;;2.28;;
78555;SDS011;67851;51.354;7.744;2023-10-19T14:45:59;7.43;;;2.08;;
78555;SDS011;67851;51.354;7.744;2023-10-19T14:48:31;14.10;;;2.75;;
78555;SDS011;67851;51.354;7.744;2023-10-19T14:50:58;11.18;;;3.10;;
78555;SDS011;67851;51.354;7.744;2023-10-19T14:53:25;9.02;;;2.58;;
78555;SDS011;67851;51.354;7.744;2023-10-19T14:55:54;11.20;;;2.92;;
78555;SDS011;67851;51.354;7.744;2023-10-19T14:58:22;10.07;;;2.45;;
78555;SDS011;67851;51.354;7.744;2023-10-19T15:00:49;15.60;;;2.45;;
78555;SDS011;67851;51.354;7.744;2023-10-19T15:03:21;12.07;;;2.25;;
78555;SDS011;67851;51.354;7.744;2023-10-19T15:05:51;11.02;;;2.38;;
78555;SDS011;67851;51.354;7.744;2023-10-19T15:08:19;19.67;;;2.42;;
78555;SDS011;67851;51.354;7.744;2023-10-19T15:10:46;10.60;;;2.75;;
78555;SDS011;67851;51.354;7.744;2023-10-19T15:13:13;9.82;;;2.35;;